Time;durP1;ratioP1;P1;durP2;ratioP2;P2;SDS_P1;SDS_P2;PMS_P1;PMS_P2;Temp;Humidity;BMP_temperature;BMP_pressure;BME280_temperature;BME280_humidity;BME280_pressure;Samples;Min_cycle;Max_cycle;Signal;HPM_P1;HPM_P2
2022/08/25 00:01:17;;;;;;;4.85;3.10;;;;;;;22.77;55.28;69308.34;4912404;29;20419;-76
2022/08/25 00:03:43;;;;;;;4.90;2.85;;;;;;;;;;4908521;29;20048;-76
2022/08/25 00:06:10;;;;;;;4.75;2.42;;;;;;;22.77;54.53;69308.34;4912375;29;20091;-76
2022/08/25 00:08:36;;;;;;;5.15;2.70;;;;;;;;;;4893591;29;20052;-76
2022/08/25 00:11:11;;;;;;;5.63;2.75;;;;;;;22.63;55.29;69292.91;4906279;29;20052;-76
2022/08/25 00:13:37;;;;;;;5.15;2.60;;;;;;;;;;4901390;29;20049;-76
2022/08/25 00:16:02;;;;;;;5.03;2.63;;;;;;;22.38;56.57;69259.41;4910863;29;20048;-76
2022/08/25 00:18:28;;;;;;;4.00;2.25;;;;;;;;;;4911725;29;20044;-76
2022/08/25 00:20:53;;;;;;;5.77;2.30;;;;;;;;;;4910484;29;20072;-76
2022/08/25 00:23:19;;;;;;;6.38;2.78;;;;;;;22.30;56.75;69255.69;4910663;29;20288;-76
2022/08/25 00:25:44;;;;;;;4.30;2.70;;;;;;;;;;4910664;29;20561;-76
2022/08/25 00:28:10;;;;;;;5.85;2.83;;;;;;;22.18;57.10;69241.94;4909682;29;20092;-76
2022/08/25 00:30:35;;;;;;;5.22;2.40;;;;;;;22.07;58.39;69225.03;4910175;29;20423;-76
2022/08/25 00:33:01;;;;;;;4.80;2.60;;;;;;;;;;4910345;29;20058;-76
2022/08/25 00:35:26;;;;;;;3.63;2.20;;;;;;;21.86;58.39;69206.97;4911562;29;20127;-76
2022/08/25 00:37:52;;;;;;;4.95;2.75;;;;;;;21.78;58.79;69192.44;4913858;29;20112;-76
2022/08/25 00:40:17;;;;;;;4.93;2.83;;;;;;;21.67;59.82;69179.84;4909711;29;20428;-76
2022/08/25 00:42:43;;;;;;;5.43;3.70;;;;;;;21.61;60.20;69178.97;4911746;29;20068;-76
2022/08/25 00:45:08;;;;;;;8.05;2.78;;;;;;;21.49;60.33;69164.63;4911085;29;20155;-76
2022/08/25 00:47:34;;;;;;;5.90;2.78;;;;;;;;;;4896141;29;20849;-76
2022/08/25 00:50:04;;;;;;;4.97;2.65;;;;;;;21.31;61.18;69139.75;4893084;29;20040;-76
2022/08/25 00:52:29;;;;;;;5.20;3.28;;;;;;;;;;4891290;29;20044;-76
2022/08/25 00:55:01;;;;;;;5.53;2.78;;;;;;;21.14;62.50;69128.41;4892856;29;20040;-76
2022/08/25 00:57:34;;;;;;;4.38;2.40;;;;;;;;;;4891141;29;20040;-76
2022/08/25 01:00:05;;;;;;;6.00;2.58;;;;;;;20.94;63.46;69103.41;4892387;29;20045;-76
2022/08/25 01:02:30;;;;;;;6.25;2.83;;;;;;;20.82;64.21;69084.84;4890909;29;20051;-76
2022/08/25 01:04:57;;;;;;;4.93;3.05;;;;;;;;;;4889172;29;20412;-76
2022/08/25 01:07:22;;;;;;;4.70;2.63;;;;;;;20.70;64.53;69076.53;4891026;29;20045;-76
2022/08/25 01:09:48;;;;;;;6.50;2.92;;;;;;;;;;4876984;29;20045;-76
2022/08/25 01:12:14;;;;;;;5.25;3.00;;;;;;;20.60;64.99;69065.66;4890179;29;20527;-76
2022/08/25 01:14:40;;;;;;;6.90;2.90;;;;;;;20.56;64.86;69063.78;4890761;29;20059;-76
2022/08/25 01:17:05;;;;;;;6.07;3.05;;;;;;;;;;4890130;29;20104;-76
2022/08/25 01:19:32;;;;;;;6.97;3.10;;;;;;;20.56;65.08;69061.09;4889204;29;20044;-76
2022/08/25 01:21:58;;;;;;;6.85;3.00;;;;;;;20.57;65.03;69061.66;4907814;29;20364;-75
2022/08/25 01:24:39;;;;;;;5.20;3.38;;;;;;;20.54;65.26;69058.22;4874269;29;20040;-76
2022/08/25 01:27:05;;;;;;;7.80;3.40;;;;;;;;;;4892326;29;20467;-76
2022/08/25 01:29:31;;;;;;;7.60;3.80;;;;;;;;;;4899704;29;20100;-76
2022/08/25 01:31:58;;;;;;;7.18;4.35;;;;;;;;;;4892504;29;20048;-76
2022/08/25 01:34:28;;;;;;;6.97;4.00;;;;;;;20.29;66.56;69030.78;4892268;29;20139;-76
2022/08/25 01:36:54;;;;;;;;;;;;;;;20.24;66.57;69025.03;4892044;29;20111;-76
2022/08/25 01:39:19;;;;;;;6.55;3.72;;;;;;;;;;4891174;29;20412;-76
2022/08/25 01:42:01;;;;;;;6.38;4.40;;;;;;;20.17;66.62;69017.63;4894203;29;20064;-76
2022/08/25 01:44:27;;;;;;;7.18;5.05;;;;;;;;;;4908448;29;20036;-76
2022/08/25 01:46:53;;;;;;;7.82;5.82;;;;;;;20.18;66.56;69012.78;4909989;29;20103;-76
2022/08/25 01:49:19;;;;;;;8.40;5.00;;;;;;;20.15;66.73;69009.91;4908540;29;20076;-76
2022/08/25 01:51:54;;;;;;;6.30;4.80;;;;;;;;;;4892848;29;20118;-76
2022/08/25 01:54:19;;;;;;;6.47;4.68;;;;;;;;;;4910436;29;20040;-76
2022/08/25 01:56:44;;;;;;;7.47;4.90;;;;;;;20.16;66.33;69015.91;4907861;29;20080;-76
2022/08/25 01:59:10;;;;;;;8.63;4.85;;;;;;;20.17;66.48;69017.03;4909276;29;20451;-76
2022/08/25 02:01:36;;;;;;;6.28;4.57;;;;;;;20.15;66.56;69015.31;4906995;29;20048;-76
2022/08/25 02:04:01;;;;;;;8.48;5.65;;;;;;;;;;4909055;29;20096;-76
2022/08/25 02:06:33;;;;;;;8.18;5.15;;;;;;;20.11;66.46;69010.16;4903458;29;20564;-76
2022/08/25 02:09:04;;;;;;;9.90;5.63;;;;;;;20.12;66.31;69011.91;4894064;29;20095;-76
2022/08/25 02:11:30;;;;;;;7.88;5.30;;;;;;;20.10;66.44;69009.03;4911386;29;20127;-76
2022/08/25 02:13:55;;;;;;;9.38;5.40;;;;;;;20.09;66.75;69011.16;4907626;29;20048;-76
2022/08/25 02:16:27;;;;;;;7.30;5.10;;;;;;;;;;4907888;29;20087;-76
2022/08/25 02:18:52;;;;;;;6.75;5.20;;;;;;;;;;4906593;29;20086;-75
2022/08/25 02:21:18;;;;;;;7.90;5.20;;;;;;;20.05;67.17;69007.19;4910337;29;20564;-76
2022/08/25 02:23:43;;;;;;;8.02;5.13;;;;;;;;;;4907037;29;20040;-76
2022/08/25 02:26:09;;;;;;;7.65;4.63;;;;;;;20.01;67.48;68999.88;4906808;29;20056;-76
2022/08/25 02:28:36;;;;;;;7.20;4.85;;;;;;;20.04;67.05;69002.75;4908500;29;20620;-76
2022/08/25 02:31:03;;;;;;;8.05;4.70;;;;;;;20.03;67.33;69002.19;4909482;29;20064;-76
2022/08/25 02:33:29;;;;;;;7.07;4.63;;;;;;;20.05;67.15;69004.47;4909167;29;20559;-76
2022/08/25 02:35:59;;;;;;;6.90;4.35;;;;;;;20.06;67.34;69005.59;4909585;29;20127;-76
2022/08/25 02:38:26;;;;;;;5.13;4.10;;;;;;;20.09;66.86;69007.91;4909048;29;20044;-76
2022/08/25 02:40:53;;;;;;;6.22;4.40;;;;;;;20.08;67.08;69010.00;4908041;29;20051;-76
2022/08/25 02:43:19;;;;;;;8.73;4.60;;;;;;;20.12;66.90;69011.34;4893568;29;20040;-76
2022/08/25 02:45:44;;;;;;;6.82;4.43;;;;;;;20.12;66.80;69011.34;4908899;29;20047;-76
2022/08/25 02:48:10;;;;;;;7.38;4.00;;;;;;;;;;4909708;29;20095;-76
2022/08/25 02:50:35;;;;;;;5.43;3.58;;;;;;;;;;4908036;29;20123;-76
2022/08/25 02:53:00;;;;;;;4.97;3.80;;;;;;;;;;4907483;29;20052;-76
2022/08/25 02:55:26;;;;;;;8.82;4.03;;;;;;;20.18;66.29;69012.78;4909154;29;20080;-76
2022/08/25 02:57:51;;;;;;;6.80;4.05;;;;;;;20.21;66.28;69021.63;4906220;29;20075;-76
2022/08/25 03:00:17;;;;;;;6.85;4.13;;;;;;;20.16;66.72;69010.50;4898105;29;20093;-76
2022/08/25 03:02:43;;;;;;;6.97;4.00;;;;;;;20.17;66.92;69017.03;4908214;29;20044;-76
2022/08/25 03:05:10;;;;;;;8.60;4.18;;;;;;;20.14;66.93;69013.59;4910455;29;20052;-76
2022/08/25 03:07:37;;;;;;;7.32;3.95;;;;;;;;;;4906998;29;20051;-76
2022/08/25 03:10:13;;;;;;;6.65;4.18;;;;;;;20.16;66.82;69015.91;4911231;29;20646;-76
2022/08/25 03:12:40;;;;;;;5.28;3.78;;;;;;;20.14;67.07;69013.59;4911472;29;20261;-76
2022/08/25 03:15:08;;;;;;;5.57;3.80;;;;;;;20.10;66.91;69003.63;4910817;29;20739;-76
2022/08/25 03:17:33;;;;;;;5.28;3.80;;;;;;;;;;4886384;29;20152;-76
2022/08/25 03:19:58;;;;;;;5.78;4.00;;;;;;;;;;4893898;29;20131;-76
2022/08/25 03:22:23;;;;;;;8.87;4.00;;;;;;;;;;4892854;29;20096;-76
2022/08/25 03:24:49;;;;;;;5.55;4.10;;;;;;;19.99;67.19;68997.59;4899521;29;20280;-76
2022/08/25 03:27:14;;;;;;;6.78;4.43;;;;;;;19.94;67.73;68991.31;4911914;29;20048;-76
2022/08/25 03:29:41;;;;;;;7.20;4.28;;;;;;;;;;4910565;29;20068;-76
2022/08/25 03:32:07;;;;;;;7.57;4.18;;;;;;;;;;4914073;29;20048;-76
2022/08/25 03:34:32;;;;;;;6.57;4.05;;;;;;;;;;4904160;29;20048;-76
2022/08/25 03:36:58;;;;;;;7.32;4.18;;;;;;;19.67;68.64;68963.72;4901121;29;20141;-76
2022/08/25 03:39:25;;;;;;;6.03;4.43;;;;;;;19.63;69.01;68959.72;4894662;29;20056;-76
2022/08/25 03:41:51;;;;;;;9.45;4.35;;;;;;;19.55;69.25;68948.44;4913168;29;20052;-76
2022/08/25 03:44:17;;;;;;;5.25;4.40;;;;;;;;;;4911904;29;20039;-76
2022/08/25 03:46:46;;;;;;;9.07;4.63;;;;;;;19.46;69.54;68932.75;4909252;29;20159;-76
2022/08/25 03:49:15;;;;;;;7.85;4.82;;;;;;;19.33;70.37;68923.28;4903063;29;20566;-76
2022/08/25 03:51:42;;;;;;;8.43;4.35;;;;;;;;;;4895692;29;20043;-75
2022/08/25 03:54:09;;;;;;;9.30;4.68;;;;;;;19.28;70.47;68925.69;4906569;29;20114;-76
2022/08/25 03:56:35;;;;;;;6.68;4.55;;;;;;;19.24;70.84;68913.00;4902738;29;20044;-76
2022/08/25 03:59:01;;;;;;;10.40;4.60;;;;;;;19.22;70.46;68905.31;4891171;29;20048;-76
2022/08/25 04:01:26;;;;;;;6.00;4.70;;;;;;;19.19;70.71;68907.28;4890428;29;20104;-76
2022/08/25 04:03:52;;;;;;;7.43;4.40;;;;;;;;;;4892676;29;20040;-77
2022/08/25 04:06:18;;;;;;;8.82;4.38;;;;;;;19.09;71.22;68897.00;4896174;29;20126;-76
2022/08/25 04:08:43;;;;;;;7.57;4.70;;;;;;;;;;4903316;29;20044;-76
2022/08/25 04:11:11;;;;;;;6.22;4.38;;;;;;;;;;4907892;29;20055;-76
2022/08/25 04:13:38;;;;;;;7.82;5.03;;;;;;;18.96;71.55;68884.28;4910410;29;20500;-76
2022/08/25 04:16:13;;;;;;;7.80;5.03;;;;;;;18.93;71.73;68882.00;4899014;29;20063;-76
2022/08/25 04:18:39;;;;;;;6.97;4.75;;;;;;;;;;4901719;29;20048;-76
2022/08/25 04:21:08;;;;;;;8.23;5.47;;;;;;;18.90;71.61;68875.31;4911470;29;20047;-76
2022/08/25 04:23:33;;;;;;;9.02;4.85;;;;;;;;;;4908681;29;20051;-78
2022/08/25 04:25:59;;;;;;;8.38;4.85;;;;;;;18.87;71.65;68871.88;4908354;29;20123;-78
2022/08/25 04:28:24;;;;;;;8.05;5.10;;;;;;;18.83;71.77;68867.31;4908925;29;20052;-76
2022/08/25 04:30:50;;;;;;;7.93;5.30;;;;;;;18.81;71.91;68859.63;4909242;29;20127;-77
2022/08/25 04:33:15;;;;;;;7.50;5.10;;;;;;;;;;4911709;29;20040;-76
2022/08/25 04:35:46;;;;;;;7.57;5.20;;;;;;;18.78;71.82;68861.59;4905841;29;20143;-76
2022/08/25 04:38:11;;;;;;;7.65;5.07;;;;;;;18.74;72.20;68860.31;4911184;29;20416;-77
2022/08/25 04:40:37;;;;;;;7.18;5.07;;;;;;;;;;4911036;29;20052;-77
2022/08/25 04:43:02;;;;;;;8.47;5.13;;;;;;;18.78;71.92;68864.31;4913335;29;20046;-77
2022/08/25 04:45:27;;;;;;;8.45;5.13;;;;;;;;;;4910269;29;20408;-76
2022/08/25 04:47:53;;;;;;;7.47;5.45;;;;;;;18.69;72.25;68855.13;4912789;29;20059;-75
2022/08/25 04:50:19;;;;;;;6.18;4.68;;;;;;;18.70;72.22;68853.59;4906444;29;20044;-75
2022/08/25 04:52:45;;;;;;;11.45;5.50;;;;;;;18.64;72.26;68841.34;4893832;29;20092;-78
2022/08/25 04:55:10;;;;;;;6.50;5.10;;;;;;;;;;4893005;29;20457;-78
2022/08/25 04:57:36;;;;;;;8.13;5.30;;;;;;;18.68;72.39;68854.00;4892355;29;20180;-77
2022/08/25 05:00:04;;;;;;;9.05;5.40;;;;;;;18.69;72.56;68852.44;4913673;29;20040;-77
2022/08/25 05:02:29;;;;;;;7.20;5.03;;;;;;;18.68;72.68;68845.34;4912838;29;20068;-76
2022/08/25 05:04:55;;;;;;;9.35;5.10;;;;;;;;;;4896185;29;20531;-78
2022/08/25 05:07:20;;;;;;;7.97;5.10;;;;;;;18.72;72.57;68855.88;4912506;29;20044;-76
2022/08/25 05:09:45;;;;;;;6.10;5.30;;;;;;;18.72;72.54;68855.28;4909186;29;20140;-75
2022/08/25 05:12:11;;;;;;;9.60;5.32;;;;;;;18.74;72.62;68857.03;4894475;29;20465;-77
2022/08/25 05:14:36;;;;;;;9.40;5.70;;;;;;;18.76;72.77;68859.31;4911221;29;20046;-77
2022/08/25 05:17:02;;;;;;;7.65;5.40;;;;;;;;;;4912024;29;20055;-76
2022/08/25 05:19:27;;;;;;;11.55;5.63;;;;;;;18.76;72.82;68853.91;4905185;29;20339;-77
2022/08/25 05:21:53;;;;;;;9.55;5.22;;;;;;;18.82;72.99;68866.19;4910712;29;20076;-77
2022/08/25 05:24:19;;;;;;;6.78;5.32;;;;;;;;;;4914467;29;20052;-76
2022/08/25 05:26:44;;;;;;;7.75;5.28;;;;;;;18.87;72.66;68872.47;4908734;29;20547;-76
2022/08/25 05:29:10;;;;;;;10.05;5.75;;;;;;;18.94;72.32;68879.88;4911447;29;20134;-78
2022/08/25 05:31:35;;;;;;;10.32;5.18;;;;;;;18.95;72.56;68881.03;4912408;29;20460;-77
2022/08/25 05:34:05;;;;;;;6.55;5.03;;;;;;;19.03;72.28;68889.59;4908325;29;20055;-76
2022/08/25 05:36:32;;;;;;;8.38;5.30;;;;;;;19.06;72.34;68895.72;4903677;29;20086;-75
2022/08/25 05:38:57;;;;;;;7.70;4.95;;;;;;;19.10;72.31;68897.59;4907889;29;20052;-76
2022/08/25 05:41:27;;;;;;;6.28;5.20;;;;;;;19.14;72.16;68902.72;4903461;29;20658;-77
2022/08/25 05:43:53;;;;;;;9.30;5.28;;;;;;;19.22;71.92;68911.31;4910811;29;20055;-78
2022/08/25 05:46:19;;;;;;;6.72;4.68;;;;;;;19.32;71.52;68922.72;4912785;29;20047;-77
2022/08/25 05:48:45;;;;;;;7.63;5.43;;;;;;;;;;4910597;29;20048;-76
2022/08/25 05:51:12;;;;;;;6.88;4.88;;;;;;;19.46;71.19;68929.47;4913565;29;20044;-77
2022/08/25 05:53:40;;;;;;;8.73;5.05;;;;;;;19.55;71.09;68947.88;4909892;29;20103;-77
2022/08/25 05:56:05;;;;;;;7.13;4.27;;;;;;;;;;4897669;29;20043;-77
2022/08/25 05:58:31;;;;;;;8.80;4.45;;;;;;;19.74;70.40;68969.03;4912442;29;20044;-78
2022/08/25 06:02:39;;;;;;;6.00;4.47;;;;;;;19.83;70.16;68974.47;4909041;29;20072;-77
2022/08/25 06:03:44;;;;;;;7.28;4.43;;;;;;;19.94;69.61;68991.31;4911787;29;20040;-76
2022/08/25 06:06:09;;;;;;;10.18;4.82;;;;;;;;;;4903786;29;20063;-77
2022/08/25 06:08:34;;;;;;;9.63;5.20;;;;;;;20.14;69.14;69014.19;4899615;29;20056;-76
2022/08/25 06:11:00;;;;;;;9.38;4.85;;;;;;;20.24;69.01;69019.63;4910685;29;20104;-77
2022/08/25 06:13:25;;;;;;;9.48;4.82;;;;;;;;;;4908443;29;20067;-76
2022/08/25 06:15:56;;;;;;;8.50;4.57;;;;;;;;;;4909490;29;20048;-77
2022/08/25 06:18:22;;;;;;;16.85;4.65;;;;;;;20.61;68.59;69061.41;4908165;29;20100;-76
2022/08/25 06:20:47;;;;;;;12.25;4.82;;;;;;;20.74;68.11;69081.09;4894342;29;20044;-77
2022/08/25 06:23:12;;;;;;;11.35;5.22;;;;;;;20.87;67.82;69095.97;4902079;29;20048;-75
2022/08/25 06:25:39;;;;;;;10.07;4.40;;;;;;;21.00;67.53;69104.28;4904717;29;20052;-77
2022/08/25 06:28:04;;;;;;;11.77;4.50;;;;;;;;;;4909534;29;20571;-77
2022/08/25 06:30:30;;;;;;;8.17;4.30;;;;;;;21.24;66.97;69131.75;4909169;29;20099;-77
2022/08/25 06:32:55;;;;;;;14.52;4.78;;;;;;;21.38;66.70;69153.22;4910092;29;20310;-78
2022/08/25 06:35:21;;;;;;;9.00;4.30;;;;;;;21.52;66.01;69163.25;4908815;29;20066;-76
2022/08/25 06:37:46;;;;;;;9.50;4.20;;;;;;;;;;4910308;29;20047;-76
2022/08/25 06:40:13;;;;;;;6.72;3.65;;;;;;;;;;4909275;29;20044;-76
2022/08/25 06:42:39;;;;;;;8.05;3.97;;;;;;;21.89;64.96;69209.28;4909352;29;20032;-76
2022/08/25 06:45:05;;;;;;;6.97;4.00;;;;;;;22.03;64.26;69225.31;4912164;29;20048;-75
2022/08/25 06:47:30;;;;;;;7.13;3.50;;;;;;;;;;4912930;29;20055;-76
2022/08/25 06:49:57;;;;;;;7.53;4.28;;;;;;;22.22;63.74;69246.53;4911297;29;20044;-76
2022/08/25 06:52:22;;;;;;;7.47;4.57;;;;;;;22.37;63.42;69257.69;4906477;29;20096;-76
2022/08/25 06:54:48;;;;;;;6.07;4.00;;;;;;;;;;4911253;29;20594;-76
2022/08/25 06:57:14;;;;;;;7.90;4.15;;;;;;;22.59;62.26;69282.91;4906947;29;20123;-77
2022/08/25 06:59:39;;;;;;;6.47;4.22;;;;;;;22.69;61.58;69299.19;4893664;29;20044;-76
2022/08/25 07:02:06;;;;;;;7.53;3.88;;;;;;;22.77;61.56;69302.94;4892966;29;20096;-76
2022/08/25 07:04:33;;;;;;;4.95;3.60;;;;;;;22.92;61.39;69319.53;4894654;29;20400;-76
2022/08/25 07:06:59;;;;;;;4.65;3.65;;;;;;;23.01;61.46;69335.28;4899347;29;20108;-77
2022/08/25 07:09:25;;;;;;;6.70;4.13;;;;;;;23.06;60.96;69340.47;4893963;29;20033;-76
2022/08/25 07:11:51;;;;;;;6.22;4.07;;;;;;;23.12;60.28;69347.91;4907441;29;20090;-76
2022/08/25 07:14:19;;;;;;;8.45;3.60;;;;;;;23.26;60.86;69357.38;4891667;29;20045;-77
2022/08/25 07:16:45;;;;;;;6.07;3.77;;;;;;;;;;4900429;29;20048;-77
2022/08/25 07:19:11;;;;;;;8.15;3.58;;;;;;;23.52;59.68;69386.59;4907510;29;20284;-77
2022/08/25 07:21:37;;;;;;;8.43;4.00;;;;;;;;;;4899192;29;20045;-76
2022/08/25 07:24:05;;;;;;;5.00;3.90;;;;;;;23.75;59.34;69412.41;4890781;29;20059;-76
2022/08/25 07:26:33;;;;;;;8.20;3.80;;;;;;;;;;4892158;29;20049;-76
2022/08/25 07:28:59;;;;;;;4.37;3.50;;;;;;;23.90;58.18;69429.59;4907797;29;20407;-76
2022/08/25 07:31:25;;;;;;;7.35;4.07;;;;;;;23.97;58.73;69437.63;4911357;29;20040;-76
2022/08/25 07:36:34;;;;;;;8.10;4.20;;;;;;;24.21;58.60;69461.25;4904820;29;20287;-76
2022/08/25 07:39:04;;;;;;;5.53;3.70;;;;;;;;;;4909144;29;22243;-76
2022/08/25 07:41:30;;;;;;;6.78;4.10;;;;;;;24.50;57.48;69502.69;4911117;29;20156;-77
2022/08/25 07:43:56;;;;;;;6.65;3.75;;;;;;;24.56;56.64;69509.00;4909294;29;20055;-76
2022/08/25 07:46:21;;;;;;;7.28;3.97;;;;;;;24.60;56.81;69516.31;4905731;29;20036;-77
2022/08/25 07:48:46;;;;;;;8.10;4.00;;;;;;;;;;4912382;29;20048;-76
2022/08/25 07:51:16;;;;;;;5.15;3.90;;;;;;;24.89;55.80;69540.28;4927543;29;20070;-77
2022/08/25 07:53:42;;;;;;;6.38;4.03;;;;;;;24.97;56.14;69546.72;4909822;29;20044;-76
2022/08/25 07:56:15;;;;;;;8.90;4.18;;;;;;;25.07;55.88;69560.34;4909180;29;20063;-76
2022/08/25 07:58:41;;;;;;;7.85;3.97;;;;;;;;;;4907986;29;20044;-77
2022/08/25 08:01:12;;;;;;;7.85;3.92;;;;;;;25.21;55.38;69571.56;4905039;29;20103;-77
2022/08/25 08:03:37;;;;;;;5.85;3.70;;;;;;;25.33;55.64;69589.63;4917830;29;20593;-77
2022/08/25 08:06:07;;;;;;;7.25;3.95;;;;;;;25.54;54.64;69613.16;4924665;29;20044;-76
2022/08/25 08:08:33;;;;;;;7.97;4.10;;;;;;;25.61;54.01;69621.75;4903581;29;20044;-76
2022/08/25 08:10:59;;;;;;;6.57;3.75;;;;;;;25.64;54.29;69619.19;4908140;29;20135;-77
2022/08/25 08:13:25;;;;;;;7.50;3.90;;;;;;;25.70;54.31;69631.50;4908284;29;20068;-76
2022/08/25 08:15:51;;;;;;;7.05;3.88;;;;;;;25.87;54.37;69648.31;4906964;29;20058;-77
2022/08/25 08:18:16;;;;;;;5.80;3.92;;;;;;;26.03;53.68;69668.81;4906788;29;20028;-76
2022/08/25 08:20:43;;;;;;;5.45;4.15;;;;;;;26.07;53.02;69672.84;4905601;29;20409;-76
2022/08/25 08:23:09;;;;;;;7.80;3.92;;;;;;;;;;4905923;29;20500;-77
2022/08/25 08:25:35;;;;;;;7.68;4.18;;;;;;;26.33;52.89;69699.41;4908848;29;20062;-76
2022/08/25 08:28:00;;;;;;;7.78;4.10;;;;;;;26.40;52.16;69709.59;4909372;29;20596;-76
2022/08/25 08:30:25;;;;;;;6.10;3.85;;;;;;;;;;4909791;29;20044;-76
2022/08/25 08:32:51;;;;;;;7.10;3.90;;;;;;;26.64;52.00;69737.16;4924073;29;20400;-77
2022/08/25 08:35:17;;;;;;;5.85;3.75;;;;;;;26.72;51.36;69743.63;4908445;29;20303;-76
2022/08/25 08:37:44;;;;;;;8.75;4.35;;;;;;;26.77;50.82;69749.38;4908436;29;20043;-76
2022/08/25 08:40:11;;;;;;;6.68;4.35;;;;;;;;;;4905161;29;20243;-77
2022/08/25 08:42:52;;;;;;;8.82;4.68;;;;;;;27.03;50.60;69780.25;4906447;29;20060;-77
2022/08/25 08:45:49;;;;;;;7.78;4.18;;;;;;;27.13;50.12;69786.25;4930222;29;20054;-76
2022/08/25 08:48:17;;;;;;;7.63;4.22;;;;;;;27.16;50.15;69793.06;4891985;29;20432;-77
2022/08/25 08:51:07;;;;;;;9.15;4.22;;;;;;;27.27;50.38;69804.53;4906812;29;20040;-76
2022/08/25 08:53:35;;;;;;;6.63;3.75;;;;;;;27.28;48.73;69809.00;4909744;29;20052;-76
2022/08/25 08:56:06;;;;;;;6.88;4.00;;;;;;;27.40;48.96;69819.47;4906680;29;20048;-77
2022/08/25 08:58:46;;;;;;;5.65;4.00;;;;;;;27.54;49.06;69838.28;4916977;29;20175;-77
2022/08/25 09:01:18;;;;;;;7.00;4.15;;;;;;;27.73;48.35;69858.97;4934107;29;20055;-76
2022/08/25 09:03:48;;;;;;;4.57;3.75;;;;;;;27.78;47.65;69861.97;4906517;29;20414;-76
2022/08/25 09:06:22;;;;;;;9.40;4.68;;;;;;;27.89;47.59;69877.38;4904230;29;20087;-77
2022/08/25 09:08:48;;;;;;;5.75;3.83;;;;;;;27.95;46.50;69884.28;4907028;29;20052;-76
2022/08/25 09:11:21;;;;;;;7.22;3.90;;;;;;;;;;4908961;29;20062;-77
2022/08/25 09:14:11;;;;;;;5.82;4.10;;;;;;;28.09;46.05;69900.38;4908077;29;20048;-77
2022/08/25 09:16:56;;;;;;;7.75;4.10;;;;;;;28.24;46.79;69916.47;4905815;29;20054;-77
2022/08/25 09:19:24;;;;;;;8.10;4.25;;;;;;;28.22;46.29;69914.16;4905568;29;20040;-76
2022/08/25 09:22:12;;;;;;;8.05;4.38;;;;;;;28.31;46.37;69919.03;4904891;29;20036;-76
2022/08/25 09:24:54;;;;;;;5.82;4.10;;;;;;;28.45;46.03;69940.06;4908493;29;20504;-76
2022/08/25 09:27:55;;;;;;;8.25;4.20;;;;;;;28.56;45.28;69947.22;4908434;29;20048;-76
2022/08/25 09:30:22;;;;;;;7.70;3.92;;;;;;;28.67;46.00;69964.78;4920360;29;20052;-76
2022/08/25 09:33:00;;;;;;;7.00;4.30;;;;;;;28.81;45.77;69980.31;4908800;29;20096;-76
2022/08/25 09:35:29;;;;;;;5.93;4.05;;;;;;;28.86;45.68;69986.03;4909243;29;20574;-76
2022/08/25 09:37:59;;;;;;;6.20;4.38;;;;;;;28.92;45.74;69993.53;4909972;29;20051;-76
2022/08/25 09:40:25;;;;;;;6.15;4.28;;;;;;;;;;4908141;29;20028;-76
2022/08/25 09:42:53;;;;;;;6.90;4.53;;;;;;;29.21;45.40;70020.84;4908509;29;20470;-76
2022/08/25 09:45:54;;;;;;;6.13;4.88;;;;;;;29.27;44.74;70024.44;4909238;29;20083;-76
2022/08/25 09:48:27;;;;;;;6.63;4.10;;;;;;;29.33;44.15;70034.06;4887207;29;20048;-76
2022/08/25 09:51:01;;;;;;;6.55;3.97;;;;;;;29.30;43.70;70030.06;4907228;29;20056;-76
2022/08/25 09:53:28;;;;;;;6.78;4.40;;;;;;;29.29;43.67;70032.22;4910523;29;20032;-76
2022/08/25 09:56:06;;;;;;;7.57;3.90;;;;;;;29.30;44.00;70036.13;4908526;29;20036;-76
2022/08/25 09:58:32;;;;;;;7.33;4.20;;;;;;;29.41;43.58;70046.03;4911837;29;20531;-76
2022/08/25 10:01:23;;;;;;;6.75;4.43;;;;;;;29.57;42.70;70066.59;4924746;29;20827;-76
2022/08/25 10:03:57;;;;;;;9.15;4.25;;;;;;;29.44;42.92;70049.47;4913217;29;20103;-77
2022/08/25 10:06:23;;;;;;;6.32;4.38;;;;;;;29.39;43.06;70043.72;4914289;29;20098;-77
2022/08/25 10:08:49;;;;;;;6.53;4.15;;;;;;;29.38;42.75;70045.31;4913401;29;20055;-76
2022/08/25 10:11:32;;;;;;;8.23;4.80;;;;;;;29.44;42.52;70052.22;4914287;29;20048;-76
2022/08/25 10:14:04;;;;;;;6.47;4.25;;;;;;;29.50;42.50;70057.97;4907150;29;20475;-75
2022/08/25 10:16:31;;;;;;;7.72;4.60;;;;;;;29.54;43.00;70060.41;4913553;29;20032;-77
2022/08/25 10:19:08;;;;;;;7.78;4.00;;;;;;;29.87;41.82;70097.81;4915190;29;20047;-78
2022/08/25 10:21:37;;;;;;;8.90;4.10;;;;;;;29.98;41.67;70109.31;4918002;29;20040;-78
2022/08/25 10:24:04;;;;;;;6.93;4.03;;;;;;;29.92;41.06;70103.00;4916108;29;20051;-76
2022/08/25 10:27:11;;;;;;;5.47;4.20;;;;;;;29.81;40.98;70088.19;4911862;29;20501;-76
2022/08/25 10:29:51;;;;;;;5.40;4.00;;;;;;;29.94;40.83;70105.31;4906868;29;20184;-77
2022/08/25 10:32:52;;;;;;;7.40;3.78;;;;;;;30.12;40.21;70128.19;4922348;29;20044;-76
2022/08/25 10:35:22;;;;;;;6.43;3.92;;;;;;;30.37;39.88;70155.84;4927871;29;20486;-76
2022/08/25 10:38:06;;;;;;;5.07;4.03;;;;;;;30.29;40.04;70145.03;4927295;29;20099;-76
2022/08/25 10:40:37;;;;;;;7.32;3.75;;;;;;;30.35;39.34;70151.94;4925727;29;20570;-76
2022/08/25 10:43:21;;;;;;;4.85;3.50;;;;;;;30.40;37.30;70159.88;4912306;29;20048;-76
2022/08/25 10:45:59;;;;;;;7.95;4.07;;;;;;;30.22;38.74;70134.22;4908537;29;20048;-77
2022/08/25 10:48:37;;;;;;;5.63;3.90;;;;;;;30.08;39.55;70121.41;4914961;29;20044;-76
2022/08/25 10:51:02;;;;;;;5.53;3.77;;;;;;;30.21;39.42;70135.84;4911534;29;20135;-76
2022/08/25 10:54:06;;;;;;;6.72;4.20;;;;;;;30.47;40.27;70164.59;4908505;29;20131;-77
2022/08/25 10:56:40;;;;;;;6.72;4.43;;;;;;;30.56;38.85;70174.97;4907807;29;20046;-77
2022/08/25 10:59:31;;;;;;;6.75;4.15;;;;;;;30.61;38.52;70180.72;4910939;29;20052;-76
2022/08/25 11:02:10;;;;;;;5.72;3.70;;;;;;;30.82;37.44;70201.03;4906911;29;20032;-77
2022/08/25 11:05:25;;;;;;;5.82;3.75;;;;;;;30.75;36.86;70196.25;4913965;29;20068;-77
2022/08/25 11:08:05;;;;;;;4.90;3.80;;;;;;;30.90;37.30;70212.97;4916970;29;20078;-76
2022/08/25 11:10:51;;;;;;;5.78;3.90;;;;;;;30.85;37.07;70207.81;4905339;29;20051;-77
2022/08/25 11:13:37;;;;;;;5.95;4.03;;;;;;;30.88;37.40;70210.69;4922408;29;20047;-76
2022/08/25 11:16:11;;;;;;;7.95;3.80;;;;;;;30.81;37.01;70205.94;4908601;29;20616;-76
2022/08/25 11:18:46;;;;;;;6.57;4.07;;;;;;;30.89;37.21;70214.56;4911477;29;20512;-76
2022/08/25 11:21:21;;;;;;;6.75;3.85;;;;;;;30.86;36.70;70211.69;4908997;29;20478;-76
2022/08/25 11:23:57;;;;;;;6.35;3.80;;;;;;;31.08;36.20;70230.97;4909150;29;20424;-77
2022/08/25 11:26:33;;;;;;;6.15;4.22;;;;;;;31.30;35.66;70258.47;4912382;29;20055;-76
2022/08/25 11:29:17;;;;;;;7.78;4.10;;;;;;;31.20;36.28;70247.53;4927650;29;20055;-76
2022/08/25 11:31:47;;;;;;;5.50;3.35;;;;;;;31.21;36.21;70245.34;4912480;29;20096;-76
2022/08/25 11:34:14;;;;;;;7.10;3.90;;;;;;;31.39;35.35;70268.88;4914993;29;20408;-76
2022/08/25 11:36:48;;;;;;;6.85;4.20;;;;;;;31.34;35.42;70262.50;4913076;29;20048;-76
2022/08/25 11:39:16;;;;;;;5.70;3.42;;;;;;;31.38;35.28;70269.88;4912574;29;20092;-76
2022/08/25 11:42:18;;;;;;;6.72;3.78;;;;;;;31.27;34.87;70254.44;4898099;29;20044;-76
2022/08/25 11:44:50;;;;;;;6.10;3.38;;;;;;;31.39;34.03;70266.13;4910390;29;20052;-76
2022/08/25 11:47:41;;;;;;;5.47;3.65;;;;;;;31.36;35.50;70262.66;4913392;29;20064;-76
2022/08/25 11:50:22;;;;;;;5.95;3.83;;;;;;;31.63;36.00;70290.44;4910865;29;20064;-76
2022/08/25 11:52:52;;;;;;;5.82;4.18;;;;;;;31.56;34.97;70287.84;4908122;29;20040;-76
2022/08/25 11:55:24;;;;;;;6.88;3.88;;;;;;;31.34;35.63;70265.25;4911447;29;20063;-76
2022/08/25 11:58:11;;;;;;;7.10;4.60;;;;;;;31.43;35.00;70272.91;4910901;29;20118;-76
2022/08/25 12:00:39;;;;;;;5.25;3.80;;;;;;;31.62;34.83;70297.53;4912348;29;20055;-76
2022/08/25 12:03:40;;;;;;;;;;;;;;;31.74;34.78;70308.03;4911495;29;20111;-76
2022/08/25 12:06:29;;;;;;;7.65;3.72;;;;;;;31.84;35.23;70322.28;4860278;29;20404;-76
2022/08/25 12:09:03;;;;;;;8.40;4.18;;;;;;;31.99;35.06;70333.50;4908945;29;20052;-76
2022/08/25 12:11:41;;;;;;;9.13;4.00;;;;;;;32.35;35.04;70376.63;4910478;29;20416;-76
2022/08/25 12:14:12;;;;;;;5.57;3.95;;;;;;;32.28;34.87;70369.13;4908049;29;20548;-76
2022/08/25 12:16:41;;;;;;;5.85;4.00;;;;;;;32.49;34.88;70395.53;4908976;29;20175;-76
2022/08/25 12:19:22;;;;;;;7.18;4.60;;;;;;;32.52;34.73;70395.66;4911314;29;20059;-76
2022/08/25 12:21:47;;;;;;;10.02;3.97;;;;;;;32.55;33.53;70396.34;4910241;29;20044;-76
2022/08/25 12:24:16;;;;;;;5.93;4.03;;;;;;;32.75;33.05;70424.34;4910999;29;20103;-76
2022/08/25 12:26:47;;;;;;;8.50;4.03;;;;;;;32.62;33.49;70406.59;4908076;29;20065;-76